createdAt,value
2024-05-09T00:02:27.653Z,26.7
2024-05-09T00:07:49.973Z,26.7
2024-05-09T00:13:23.952Z,26.6
2024-05-09T00:18:32.428Z,26.6
2024-05-09T00:24:07.212Z,26.6
2024-05-09T00:29:31.942Z,26.6
2024-05-09T00:35:10.118Z,26.6
2024-05-09T00:40:43.719Z,26.6
2024-05-09T00:46:09.327Z,26.6
2024-05-09T00:51:44.594Z,26.6
2024-05-09T00:56:51.101Z,26.6
2024-05-09T01:02:28.607Z,26.6
2024-05-09T01:07:52.318Z,26.6
2024-05-09T01:13:28.511Z,26.6
2024-05-09T01:18:51.813Z,26.6
2024-05-09T01:24:27.641Z,26.6
2024-05-09T01:30:07.006Z,26.6
2024-05-09T01:35:56.721Z,26.5
2024-05-09T01:41:45.976Z,26.6
2024-05-09T01:47:08.757Z,26.6
2024-05-09T01:52:42.087Z,26.6
2024-05-09T01:58:04.746Z,26.6
2024-05-09T02:03:59.749Z,26.5
2024-05-09T02:09:24.026Z,26.5
2024-05-09T02:14:40.627Z,26.5
2024-05-09T02:20:27.311Z,26.5
2024-05-09T02:26:10.542Z,26.5
2024-05-09T02:31:31.538Z,26.5
2024-05-09T02:37:12.950Z,26.4
2024-05-09T02:42:59.501Z,26.4
2024-05-09T02:48:38.164Z,26.4
2024-05-09T02:54:28.272Z,26.4
2024-05-09T03:00:05.971Z,26.4
2024-05-09T03:05:58.094Z,26.4
2024-05-09T03:11:46.742Z,26.4
2024-05-09T03:17:29.575Z,26.4
2024-05-09T03:23:16.646Z,26.4
2024-05-09T03:28:38.203Z,26.4
2024-05-09T03:34:15.803Z,26.4
2024-05-09T03:39:54.440Z,26.4
2024-05-09T03:45:41.369Z,26.4
2024-05-09T03:51:32.406Z,26.4
2024-05-09T03:57:10.428Z,26.3
2024-05-09T04:02:58.542Z,26.1
2024-05-09T04:08:37.388Z,26
2024-05-09T04:14:27.808Z,25.9
2024-05-09T04:25:56.827Z,25.8
2024-05-09T04:31:48.115Z,25.6
2024-05-09T04:37:33.629Z,25.5
2024-05-09T04:43:23.962Z,25.4
2024-05-09T04:49:03.270Z,25.3
2024-05-09T04:55:07.036Z,25.3
2024-05-09T05:00:54.591Z,25.2
2024-05-09T05:06:36.360Z,25.1
2024-05-09T05:12:23.290Z,25.1
2024-05-09T05:18:00.704Z,25.1
2024-05-09T05:23:38.927Z,25.1
2024-05-09T05:29:17.188Z,25
2024-05-09T05:35:06.576Z,24.9
2024-05-09T05:40:55.779Z,24.9
2024-05-09T05:46:33.730Z,24.9
2024-05-09T05:52:27.916Z,24.9
2024-05-09T05:58:06.478Z,24.9
2024-05-09T06:04:02.947Z,24.9
2024-05-09T06:09:43.179Z,24.9
2024-05-09T06:15:30.981Z,24.9
2024-05-09T06:21:20.218Z,24.8
2024-05-09T06:26:59.924Z,24.8
2024-05-09T06:32:49.981Z,24.8
2024-05-09T06:38:28.868Z,24.8
2024-05-09T06:44:19.404Z,24.8
2024-05-09T06:49:58.859Z,24.8
2024-05-09T06:55:44.784Z,24.8
2024-05-09T07:01:34.890Z,24.8
2024-05-09T07:07:18.876Z,24.8
2024-05-09T07:13:07.655Z,24.8
2024-05-09T07:18:45.139Z,24.8
2024-05-09T07:24:20.483Z,24.8
2024-05-09T07:29:57.714Z,24.8
2024-05-09T07:35:45.409Z,24.8
2024-05-09T07:41:35.819Z,24.8
2024-05-09T07:53:48.783Z,24.8
2024-05-09T07:59:37.084Z,24.8
2024-05-09T08:05:22.516Z,24.7
2024-05-09T08:11:14.122Z,24.7
2024-05-09T08:16:52.648Z,24.7
2024-05-09T08:22:44.615Z,24.7
2024-05-09T08:28:07.183Z,24.6
2024-05-09T08:34:00.518Z,24.6
2024-05-09T08:39:56.129Z,24.6
2024-05-09T08:45:47.199Z,24.6
2024-05-09T08:51:42.399Z,24.6
2024-05-09T08:57:18.912Z,24.5
2024-05-09T09:03:11.799Z,24.5
2024-05-09T09:08:51.813Z,24.5
2024-05-09T09:14:27.395Z,24.5
2024-05-09T09:20:08.981Z,24.4
2024-05-09T09:25:57.767Z,24.4
2024-05-09T09:31:54.759Z,24.4
2024-05-09T09:37:19.640Z,24.4
2024-05-09T09:43:08.531Z,24.4
2024-05-09T09:48:57.421Z,24.4
2024-05-09T09:54:33.208Z,24.4
2024-05-09T09:59:58.807Z,24.4
2024-05-09T10:05:31.479Z,24.4
2024-05-09T10:11:20.149Z,24.4
2024-05-09T10:17:07.883Z,24.3
2024-05-09T10:22:59.596Z,24.3
2024-05-09T10:28:20.614Z,24.2
2024-05-09T10:34:10.558Z,24.2
2024-05-09T10:39:49.074Z,24.2
2024-05-09T10:45:39.574Z,24.1
2024-05-09T10:51:14.765Z,24.1
2024-05-09T10:56:51.642Z,24.1
2024-05-09T11:02:39.573Z,24.1
2024-05-09T11:08:19.558Z,24.1
2024-05-09T11:14:01.478Z,24
2024-05-09T11:19:43.934Z,24
2024-05-09T11:25:34.623Z,24
2024-05-09T11:31:21.496Z,24
2024-05-09T11:36:59.313Z,23.9
2024-05-09T11:42:53.126Z,23.8
2024-05-09T11:48:31.613Z,42.9
2024-05-09T11:54:20.905Z,44.6
2024-05-09T11:59:44.689Z,40.7
2024-05-09T12:05:36.717Z,36.3
2024-05-09T12:11:24.867Z,34.2
2024-05-09T12:17:05.338Z,33.3
2024-05-09T12:22:59.206Z,32.8
2024-05-09T12:28:21.813Z,46.3
2024-05-09T12:34:12.141Z,45.8
2024-05-09T12:39:34.403Z,43.1
2024-05-09T12:45:36.099Z,37.8
2024-05-09T12:51:31.692Z,34.8
2024-05-09T12:57:19.317Z,33.5
2024-05-09T13:03:08.100Z,32.8
2024-05-09T13:08:51.170Z,32.4
2024-05-09T13:14:35.412Z,31.9
2024-05-09T13:20:18.887Z,31.6
2024-05-09T13:26:04.337Z,31.3
2024-05-09T13:31:58.325Z,30.9
2024-05-09T13:37:21.265Z,30.5
2024-05-09T13:42:52.946Z,30.2
2024-05-09T13:48:31.506Z,29.8
2024-05-09T13:54:03.523Z,29.4
2024-05-09T13:59:44.657Z,29.1
2024-05-09T14:05:24.953Z,28.8
2024-05-09T14:11:15.054Z,28.4
2024-05-09T14:16:37.959Z,28
2024-05-09T14:22:28.295Z,27.6
2024-05-09T14:28:10.036Z,27.3
2024-05-09T14:33:59.292Z,26.9
2024-05-09T14:39:40.792Z,26.6
2024-05-09T14:45:36.870Z,26.3
2024-05-09T14:51:28.274Z,25.9
2024-05-09T14:57:12.280Z,25.7
2024-05-09T15:03:06.575Z,25.4
2024-05-09T15:08:46.381Z,25.2
2024-05-09T15:14:39.349Z,25
2024-05-09T15:20:23.734Z,24.9
2024-05-09T15:26:07.075Z,24.8
2024-05-09T15:31:53.722Z,24.7
2024-05-09T15:37:32.887Z,24.6
2024-05-09T15:43:25.105Z,24.6
2024-05-09T15:49:02.881Z,24.5
2024-05-09T15:54:57.170Z,24.4
2024-05-09T16:00:46.270Z,24.4
2024-05-09T16:06:28.333Z,24.4
2024-05-09T16:12:15.302Z,24.3
2024-05-09T16:17:54.320Z,24.3
2024-05-09T16:23:48.952Z,24.3
2024-05-09T16:29:25.532Z,24.3
2024-05-09T16:35:14.986Z,24.2
2024-05-09T16:41:10.116Z,24.2
2024-05-09T16:46:48.433Z,24.2
2024-05-09T16:52:33.840Z,24.2
2024-05-09T16:58:12.324Z,24.1
2024-05-09T17:04:09.175Z,24.2
2024-05-09T17:09:58.270Z,24.1
2024-05-09T17:15:50.343Z,24.1
2024-05-09T17:21:39.773Z,24.1
2024-05-09T17:27:18.061Z,24.1
2024-05-09T17:33:06.827Z,24.1
2024-05-09T17:38:45.448Z,24.1
2024-05-09T17:44:20.517Z,24
2024-05-09T17:49:59.496Z,24
2024-05-09T17:55:47.291Z,23.9
2024-05-09T18:01:45.586Z,23.9
2024-05-09T18:07:28.952Z,23.9
2024-05-09T18:13:15.350Z,23.9
2024-05-09T18:18:38.563Z,23.9
2024-05-09T18:24:33.310Z,23.9
2024-05-09T18:30:14.365Z,23.8
2024-05-09T18:36:02.402Z,23.8
2024-05-09T18:41:54.647Z,23.8
2024-05-09T18:47:40.989Z,23.8
2024-05-09T18:53:33.484Z,23.8
2024-05-09T18:59:10.452Z,23.8
2024-05-09T19:05:09.520Z,23.8
2024-05-09T19:10:59.298Z,23.7
2024-05-09T19:16:39.935Z,23.7
2024-05-09T19:22:32.372Z,23.7
2024-05-09T19:28:19.514Z,23.7
2024-05-09T19:34:10.555Z,23.6
2024-05-09T19:39:47.374Z,23.6
2024-05-09T19:45:38.297Z,23.6
2024-05-09T19:51:32.951Z,23.6
2024-05-09T19:57:10.832Z,23.6
2024-05-09T20:03:04.003Z,23.6
2024-05-09T20:08:44.101Z,23.6
2024-05-09T20:14:32.432Z,23.6
2024-05-09T20:19:56.957Z,23.6
2024-05-09T20:25:48.334Z,23.6
2024-05-09T20:31:35.873Z,23.6
2024-05-09T20:37:14.138Z,23.6
2024-05-09T20:43:02.569Z,23.6
2024-05-09T20:48:39.848Z,23.6
2024-05-09T20:54:31.583Z,23.6
2024-05-09T21:00:12.034Z,23.6
2024-05-09T21:06:08.340Z,23.6
2024-05-09T21:11:50.384Z,23.6
2024-05-09T21:17:28.303Z,23.6
2024-05-09T21:23:10.298Z,23.6
2024-05-09T21:28:48.014Z,23.6
2024-05-09T21:34:26.114Z,23.6
2024-05-09T21:40:03.143Z,23.6
2024-05-09T21:45:52.980Z,23.6
2024-05-09T21:51:43.217Z,23.5
2024-05-09T21:57:19.908Z,23.5
2024-05-09T22:03:12.338Z,23.5
2024-05-09T22:08:52.013Z,23.5
2024-05-09T22:14:45.091Z,23.4
2024-05-09T22:20:35.633Z,23.4
2024-05-09T22:26:18.865Z,23.4
2024-05-09T22:32:03.149Z,23.4
2024-05-09T22:37:47.676Z,23.4
2024-05-09T22:43:41.981Z,23.4
2024-05-09T22:49:20.196Z,23.4
2024-05-09T22:54:49.861Z,23.3
2024-05-09T23:00:32.740Z,23.3
2024-05-09T23:06:16.692Z,23.3
2024-05-09T23:12:02.718Z,23.3
2024-05-09T23:17:41.624Z,23.3
2024-05-09T23:23:29.682Z,23.3
2024-05-09T23:29:07.844Z,23.3
2024-05-09T23:35:00.047Z,23.3
2024-05-09T23:40:54.009Z,23.2
2024-05-09T23:46:32.155Z,23.2
2024-05-09T23:52:24.599Z,23.2
2024-05-09T23:58:01.220Z,23.1
